createdAt,value
2023-02-26T00:01:34.870Z,14566.66
2023-02-26T00:05:36.279Z,14570.75
2023-02-26T00:09:37.791Z,14583.00
2023-02-26T00:13:43.127Z,14533.97
2023-02-26T00:17:51.762Z,14558.50
2023-02-26T00:21:53.645Z,14562.56
2023-02-26T00:25:55.118Z,14562.56
2023-02-26T00:29:58.536Z,14591.19
2023-02-26T00:34:00.671Z,14568.72
2023-02-26T00:38:04.102Z,14554.41
2023-02-26T00:42:06.406Z,14566.66
2023-02-26T00:46:20.769Z,14566.66
2023-02-26T00:50:25.544Z,14542.13
2023-02-26T00:54:28.891Z,14533.97
2023-02-26T00:58:30.247Z,14523.75
2023-02-26T01:02:34.068Z,14529.88
2023-02-26T01:06:41.570Z,14542.13
2023-02-26T01:10:43.853Z,14533.97
2023-02-26T01:14:46.068Z,14533.97
2023-02-26T01:18:56.082Z,14552.34
2023-02-26T01:23:03.049Z,14521.69
2023-02-26T01:27:04.956Z,14562.56
2023-02-26T01:31:15.027Z,14544.19
2023-02-26T01:35:32.020Z,14544.19
2023-02-26T01:39:39.663Z,14558.50
2023-02-26T01:43:51.054Z,14560.53
2023-02-26T01:47:58.296Z,14513.53
2023-02-26T01:52:02.300Z,14503.31
2023-02-26T01:56:10.602Z,14529.88
2023-02-26T02:00:13.102Z,14505.34
2023-02-26T02:04:15.940Z,14536.00
2023-02-26T02:08:19.921Z,14472.63
2023-02-26T02:12:30.480Z,14531.91
2023-02-26T02:16:40.121Z,14495.13
2023-02-26T02:20:57.451Z,14554.41
2023-02-26T02:25:19.932Z,14480.81
2023-02-26T02:29:56.183Z,14509.44
2023-02-26T02:34:04.351Z,14503.31
2023-02-26T02:38:11.406Z,14533.97
2023-02-26T02:42:21.348Z,14499.22
2023-02-26T02:46:27.903Z,14511.47
2023-02-26T02:50:36.708Z,14519.66
2023-02-26T02:54:43.351Z,14525.78
2023-02-26T02:58:48.737Z,14531.91
2023-02-26T03:02:57.583Z,14533.97
2023-02-26T03:07:00.516Z,14533.97
2023-02-26T03:11:01.966Z,14550.31
2023-02-26T03:15:04.704Z,14507.38
2023-02-26T03:19:15.501Z,14505.34
2023-02-26T03:23:22.617Z,14527.81
2023-02-26T03:27:28.652Z,14515.56
2023-02-26T03:31:35.396Z,14513.53
2023-02-26T03:35:44.978Z,14517.59
2023-02-26T03:39:52.620Z,14513.53
2023-02-26T03:43:57.935Z,14521.69
2023-02-26T03:48:00.564Z,14548.25
2023-02-26T03:52:04.266Z,14505.34
2023-02-26T03:56:15.102Z,14533.97
2023-02-26T04:00:18.039Z,14531.91
2023-02-26T04:04:25.879Z,14536.00
2023-02-26T04:08:28.850Z,14533.97
2023-02-26T04:12:32.146Z,14517.59
2023-02-26T04:16:33.591Z,14511.47
2023-02-26T04:20:35.177Z,14550.31
2023-02-26T04:24:36.766Z,14525.78
2023-02-26T04:28:39.635Z,14542.13
2023-02-26T04:32:41.097Z,14521.69
2023-02-26T04:36:42.565Z,14527.81
2023-02-26T04:40:44.020Z,14560.53
2023-02-26T04:44:46.724Z,14542.13
2023-02-26T04:48:50.377Z,14554.41
2023-02-26T04:52:51.805Z,14570.75
2023-02-26T04:56:53.352Z,14554.41
2023-02-26T05:00:57.106Z,14564.63
2023-02-26T05:04:58.473Z,14566.66
2023-02-26T05:08:59.890Z,14560.53
2023-02-26T05:13:01.359Z,14558.50
2023-02-26T05:17:04.100Z,14556.44
2023-02-26T05:21:06.016Z,14566.66
2023-02-26T05:25:08.913Z,14540.09
2023-02-26T05:29:10.567Z,14546.22
2023-02-26T05:33:13.377Z,14554.41
2023-02-26T05:37:14.793Z,14542.13
2023-02-26T05:41:16.256Z,14578.94
2023-02-26T05:45:18.169Z,14558.50
2023-02-26T05:49:21.078Z,14546.22
2023-02-26T05:53:23.452Z,14525.78
2023-02-26T05:57:24.909Z,14546.22
2023-02-26T06:01:26.407Z,14533.97
2023-02-26T06:05:29.345Z,14529.88
2023-02-26T06:09:30.733Z,14525.78
2023-02-26T06:13:32.096Z,14544.19
2023-02-26T06:17:33.959Z,14538.03
2023-02-26T06:21:36.854Z,14542.13
2023-02-26T06:25:38.272Z,14533.97
2023-02-26T06:29:39.785Z,14556.44
2023-02-26T06:33:41.207Z,14519.66
2023-02-26T06:37:44.422Z,14511.47
2023-02-26T06:41:45.887Z,14533.97
2023-02-26T06:45:47.439Z,14529.88
2023-02-26T06:49:48.857Z,14536.00
2023-02-26T06:53:51.842Z,14509.44
2023-02-26T06:57:53.524Z,14523.75
2023-02-26T07:01:55.003Z,14499.22
2023-02-26T07:05:57.227Z,14511.47
2023-02-26T07:09:59.986Z,14521.69
2023-02-26T07:14:01.335Z,14527.81
2023-02-26T07:18:02.889Z,14550.31
2023-02-26T07:22:04.253Z,14519.66
2023-02-26T07:26:06.945Z,14531.91
2023-02-26T07:30:09.574Z,14540.09
2023-02-26T07:34:11.025Z,14550.31
2023-02-26T07:38:12.416Z,14505.34
2023-02-26T07:42:15.408Z,14511.47
2023-02-26T07:46:17.075Z,14521.69
2023-02-26T07:50:19.330Z,14564.63
2023-02-26T07:54:20.755Z,14656.59
2023-02-26T07:58:23.446Z,14722.00
2023-02-26T08:02:24.942Z,14746.53
2023-02-26T08:06:26.877Z,14603.44
2023-02-26T08:10:29.241Z,14619.81
2023-02-26T08:14:31.993Z,14583.00
2023-02-26T08:18:33.369Z,14623.91
2023-02-26T08:22:34.855Z,14583.00
2023-02-26T08:26:37.146Z,14550.31
2023-02-26T08:30:40.141Z,14572.78
2023-02-26T08:34:41.528Z,14513.53
2023-02-26T08:38:42.896Z,14566.66
2023-02-26T08:42:44.459Z,14560.53
2023-02-26T08:46:47.190Z,14570.75
2023-02-26T08:50:48.974Z,14578.94
2023-02-26T08:54:50.650Z,14578.94
2023-02-26T08:58:52.103Z,14583.00
2023-02-26T09:02:54.840Z,14560.53
2023-02-26T09:06:56.215Z,14576.88
2023-02-26T09:10:59.675Z,14591.19
2023-02-26T09:15:01.047Z,14583.00
2023-02-26T09:19:04.399Z,14585.06
2023-02-26T09:23:05.798Z,14568.72
2023-02-26T09:27:07.157Z,14585.06
2023-02-26T09:31:08.757Z,14583.00
2023-02-26T09:35:11.561Z,14576.88
2023-02-26T09:39:13.171Z,14615.72
2023-02-26T09:43:30.996Z,14648.41
2023-02-26T09:47:40.322Z,14650.47
2023-02-26T09:51:44.127Z,14652.50
2023-02-26T09:55:48.239Z,14623.91
2023-02-26T09:59:49.661Z,14638.19
2023-02-26T10:04:01.544Z,14668.84
2023-02-26T10:08:07.744Z,14658.63
2023-02-26T10:12:11.946Z,14648.41
2023-02-26T10:16:17.845Z,14693.38
2023-02-26T10:20:24.896Z,14705.66
2023-02-26T10:24:37.612Z,14771.06
2023-02-26T10:28:50.584Z,14848.75
2023-02-26T10:32:58.741Z,14946.84
2023-02-26T10:37:15.868Z,15016.34
2023-02-26T10:41:24.164Z,15110.38
2023-02-26T10:45:36.860Z,15089.94
2023-02-26T10:49:53.621Z,15216.69
2023-02-26T10:53:59.432Z,15365.94
2023-02-26T10:58:06.059Z,15335.25
2023-02-26T11:02:34.165Z,15384.31
2023-02-26T11:06:40.121Z,15402.72
2023-02-26T11:10:47.226Z,15327.09
2023-02-26T11:14:50.824Z,15523.34
2023-02-26T11:18:54.834Z,15384.31
2023-02-26T11:22:58.600Z,15392.50
2023-02-26T11:27:00.882Z,15357.75
2023-02-26T11:31:06.256Z,15388.41
2023-02-26T11:35:09.473Z,15378.19
2023-02-26T11:39:16.593Z,15596.94
2023-02-26T11:43:20.260Z,15703.25
2023-02-26T11:47:26.654Z,15744.16
2023-02-26T11:51:29.658Z,15752.34
2023-02-26T11:55:35.380Z,15897.50
2023-02-26T11:59:39.923Z,15875.00
2023-02-26T12:03:44.666Z,15772.78
2023-02-26T12:07:46.311Z,15944.53
2023-02-26T12:12:13.801Z,15834.13
2023-02-26T12:16:21.971Z,15821.84
2023-02-26T12:20:29.310Z,15887.28
2023-02-26T12:24:45.774Z,15932.25
2023-02-26T12:28:57.716Z,15834.13
2023-02-26T12:33:15.038Z,15854.56
2023-02-26T12:37:30.329Z,15742.09
2023-02-26T12:41:48.948Z,15684.88
2023-02-26T12:45:56.096Z,15662.38
2023-02-26T12:50:16.483Z,15611.25
2023-02-26T12:54:36.610Z,15676.69
2023-02-26T12:58:53.804Z,15617.41
2023-02-26T13:03:24.922Z,15650.09
2023-02-26T13:07:58.998Z,15688.94
2023-02-26T13:12:15.634Z,15672.59
2023-02-26T13:16:39.178Z,15776.88
2023-02-26T13:20:48.121Z,15727.81
2023-02-26T13:24:56.014Z,15691.00
2023-02-26T13:29:04.858Z,15780.97
2023-02-26T13:33:16.448Z,15713.50
2023-02-26T13:37:24.469Z,15641.94
2023-02-26T13:41:34.611Z,15715.53
2023-02-26T13:45:50.505Z,15731.88
2023-02-26T13:50:03.619Z,15711.44
2023-02-26T13:54:09.355Z,15727.81
2023-02-26T13:58:27.848Z,15746.19
2023-02-26T14:02:53.512Z,15748.25
2023-02-26T14:06:57.749Z,15740.06
2023-02-26T14:11:03.094Z,15744.16
2023-02-26T14:15:29.160Z,15713.50
2023-02-26T14:19:36.578Z,15662.38
2023-02-26T14:23:38.193Z,15670.56
2023-02-26T14:27:41.402Z,15652.16
2023-02-26T14:32:05.982Z,15678.72
2023-02-26T14:36:16.777Z,15652.16
2023-02-26T14:40:20.817Z,15686.91
2023-02-26T14:44:27.029Z,15656.25
2023-02-26T14:48:28.446Z,15648.06
2023-02-26T14:52:51.680Z,15648.06
2023-02-26T14:57:02.568Z,15641.94
2023-02-26T15:01:21.334Z,15656.25
2023-02-26T15:05:34.313Z,15670.56
2023-02-26T15:09:50.290Z,15684.88
2023-02-26T15:14:18.637Z,15678.72
2023-02-26T15:18:45.821Z,15672.59
2023-02-26T15:23:00.556Z,15676.69
2023-02-26T15:27:07.223Z,15666.47
2023-02-26T15:31:13.393Z,15646.03
2023-02-26T15:35:17.421Z,15625.56
2023-02-26T15:39:19.530Z,15625.56
2023-02-26T15:43:25.881Z,15570.38
2023-02-26T15:47:28.556Z,15619.44
2023-02-26T15:51:30.358Z,15599.00
2023-02-26T15:55:36.399Z,15609.22
2023-02-26T15:59:43.314Z,15560.16
2023-02-26T16:03:44.873Z,15633.75
2023-02-26T16:07:46.464Z,15607.16
2023-02-26T16:11:49.428Z,15574.47
2023-02-26T16:15:52.760Z,15564.25
2023-02-26T16:19:56.957Z,15601.03
2023-02-26T16:23:59.950Z,15611.25
2023-02-26T16:28:03.981Z,15613.31
2023-02-26T16:32:11.658Z,15590.81
2023-02-26T16:36:15.496Z,15547.88
2023-02-26T16:40:19.471Z,15586.72
2023-02-26T16:44:49.145Z,15588.78
2023-02-26T16:48:55.265Z,15539.69
2023-02-26T16:53:01.482Z,15578.56
2023-02-26T16:57:06.109Z,15547.88
2023-02-26T17:01:09.194Z,15531.53
2023-02-26T17:05:22.561Z,15543.78
2023-02-26T17:09:35.621Z,15588.78
2023-02-26T17:13:38.628Z,15537.66
2023-02-26T17:17:40.050Z,15554.00
2023-02-26T17:21:48.031Z,15504.94
2023-02-26T17:25:54.823Z,15511.09
2023-02-26T17:29:57.748Z,15535.63
2023-02-26T17:33:59.531Z,15527.44
2023-02-26T17:38:02.344Z,15519.25
2023-02-26T17:42:04.268Z,15502.91
2023-02-26T17:46:05.728Z,15500.84
2023-02-26T17:50:20.522Z,15517.22
2023-02-26T17:54:23.342Z,15525.41
2023-02-26T17:58:27.858Z,15494.72
2023-02-26T18:02:30.531Z,15504.94
2023-02-26T18:06:34.336Z,15519.25
2023-02-26T18:10:37.212Z,15517.22
2023-02-26T18:14:38.624Z,15494.72
2023-02-26T18:18:40.015Z,15482.47
2023-02-26T18:22:41.611Z,15486.53
2023-02-26T18:26:44.431Z,15482.47
2023-02-26T18:30:46.444Z,15492.69
2023-02-26T18:34:48.186Z,15523.34
2023-02-26T18:38:49.643Z,15507.00
2023-02-26T18:42:52.916Z,15474.28
2023-02-26T18:46:54.301Z,15466.09
2023-02-26T18:50:55.783Z,15453.84
2023-02-26T18:54:57.272Z,15496.78
2023-02-26T18:58:59.990Z,15492.69
2023-02-26T19:03:02.570Z,15470.19
2023-02-26T19:07:04.015Z,15433.41
2023-02-26T19:11:05.389Z,15490.63
2023-02-26T19:15:09.823Z,15439.53
2023-02-26T19:19:12.567Z,15466.09
2023-02-26T19:23:14.327Z,15462.00
2023-02-26T19:27:15.753Z,15441.56
2023-02-26T19:31:18.512Z,15457.94
2023-02-26T19:35:20.520Z,15459.97
2023-02-26T19:39:22.666Z,15425.22
2023-02-26T19:43:24.120Z,15408.84
2023-02-26T19:47:27.287Z,15439.53
2023-02-26T19:51:29.218Z,15457.94
2023-02-26T19:55:30.754Z,15427.25
2023-02-26T19:59:32.126Z,15437.47
2023-02-26T20:03:34.869Z,15494.72
2023-02-26T20:07:36.270Z,15439.53
2023-02-26T20:11:38.147Z,15451.78
2023-02-26T20:15:40.019Z,15441.56
2023-02-26T20:19:42.739Z,15439.53
2023-02-26T20:23:44.535Z,15449.75
2023-02-26T20:27:45.911Z,15439.53
2023-02-26T20:31:48.310Z,15396.59
2023-02-26T20:35:51.218Z,15396.59
2023-02-26T20:39:52.618Z,15404.78
2023-02-26T20:43:54.011Z,15404.78
2023-02-26T20:47:56.088Z,15433.41
2023-02-26T20:51:58.875Z,15408.84
2023-02-26T20:56:00.244Z,15392.50
2023-02-26T21:00:01.826Z,15417.03
2023-02-26T21:04:04.577Z,15437.47
2023-02-26T21:08:09.228Z,15378.19
2023-02-26T21:12:10.580Z,15388.41
2023-02-26T21:16:12.412Z,15406.81
2023-02-26T21:20:14.437Z,15376.16
2023-02-26T21:24:17.203Z,15396.59
2023-02-26T21:28:21.111Z,15400.69
2023-02-26T21:32:22.647Z,15390.47
2023-02-26T21:36:24.209Z,15380.25
2023-02-26T21:40:27.137Z,15398.63
2023-02-26T21:44:29.492Z,15384.31
2023-02-26T21:48:30.906Z,15378.19
2023-02-26T21:52:32.522Z,15376.16
2023-02-26T21:56:35.303Z,15388.41
2023-02-26T22:00:36.643Z,15384.31
2023-02-26T22:04:38.030Z,15376.16
2023-02-26T22:08:39.642Z,15376.16
2023-02-26T22:12:42.353Z,15367.97
2023-02-26T22:16:43.911Z,15372.06
2023-02-26T22:20:47.086Z,15306.66
2023-02-26T22:24:48.483Z,15343.44
2023-02-26T22:28:51.188Z,15372.06
2023-02-26T22:32:52.563Z,15349.56
2023-02-26T22:36:54.270Z,15345.47
2023-02-26T22:40:55.660Z,15327.09
2023-02-26T22:44:58.414Z,15296.41
2023-02-26T22:49:00.608Z,15302.56
2023-02-26T22:53:02.196Z,15306.66
2023-02-26T22:57:03.560Z,15333.22
2023-02-26T23:01:07.567Z,15273.94
2023-02-26T23:05:09.926Z,15292.34
2023-02-26T23:09:11.313Z,15278.03
2023-02-26T23:13:12.709Z,15296.41
2023-02-26T23:17:15.471Z,15288.25
2023-02-26T23:21:16.853Z,15269.84
2023-02-26T23:25:18.472Z,15298.47
2023-02-26T23:29:19.984Z,15269.84
2023-02-26T23:33:22.954Z,15310.72
2023-02-26T23:37:24.431Z,15292.34
2023-02-26T23:41:26.198Z,15284.16
2023-02-26T23:45:28.221Z,15306.66
2023-02-26T23:49:30.902Z,15269.84
2023-02-26T23:53:32.469Z,15286.19
2023-02-26T23:57:33.854Z,15269.84
